sensor_id;sensor_type;location;lat;lon;timestamp;P1;durP1;ratioP1;P2;durP2;ratioP2
76894;SDS011;65855;42.030;13.078;2023-05-07T00:00:18;9.30;;;4.85;;
76894;SDS011;65855;42.030;13.078;2023-05-07T00:02:44;8.43;;;4.38;;
76894;SDS011;65855;42.030;13.078;2023-05-07T00:05:10;8.40;;;4.43;;
76894;SDS011;65855;42.030;13.078;2023-05-07T00:07:36;8.13;;;4.38;;
76894;SDS011;65855;42.030;13.078;2023-05-07T00:10:02;9.48;;;5.50;;
76894;SDS011;65855;42.030;13.078;2023-05-07T00:12:28;9.57;;;5.10;;
76894;SDS011;65855;42.030;13.078;2023-05-07T00:14:56;9.52;;;5.85;;
76894;SDS011;65855;42.030;13.078;2023-05-07T00:17:22;11.52;;;5.43;;
76894;SDS011;65855;42.030;13.078;2023-05-07T00:19:47;11.63;;;5.38;;
76894;SDS011;65855;42.030;13.078;2023-05-07T00:22:13;8.60;;;4.38;;
76894;SDS011;65855;42.030;13.078;2023-05-07T00:24:38;8.23;;;4.72;;
76894;SDS011;65855;42.030;13.078;2023-05-07T00:27:03;7.57;;;4.65;;
76894;SDS011;65855;42.030;13.078;2023-05-07T00:29:30;10.35;;;5.00;;
76894;SDS011;65855;42.030;13.078;2023-05-07T00:31:56;7.72;;;3.90;;
76894;SDS011;65855;42.030;13.078;2023-05-07T00:34:21;8.68;;;4.50;;
76894;SDS011;65855;42.030;13.078;2023-05-07T00:36:47;7.57;;;4.07;;
76894;SDS011;65855;42.030;13.078;2023-05-07T00:39:12;7.85;;;3.90;;
76894;SDS011;65855;42.030;13.078;2023-05-07T00:41:38;9.25;;;5.22;;
76894;SDS011;65855;42.030;13.078;2023-05-07T00:44:03;8.73;;;4.03;;
76894;SDS011;65855;42.030;13.078;2023-05-07T00:46:29;8.10;;;4.40;;
76894;SDS011;65855;42.030;13.078;2023-05-07T00:48:55;8.13;;;4.28;;
76894;SDS011;65855;42.030;13.078;2023-05-07T00:51:22;8.68;;;4.55;;
76894;SDS011;65855;42.030;13.078;2023-05-07T00:53:49;8.32;;;4.38;;
76894;SDS011;65855;42.030;13.078;2023-05-07T00:56:15;8.98;;;4.03;;
76894;SDS011;65855;42.030;13.078;2023-05-07T00:58:41;12.43;;;5.00;;
76894;SDS011;65855;42.030;13.078;2023-05-07T01:01:06;10.30;;;4.57;;
76894;SDS011;65855;42.030;13.078;2023-05-07T01:03:32;8.95;;;4.65;;
76894;SDS011;65855;42.030;13.078;2023-05-07T01:05:58;9.80;;;5.07;;
76894;SDS011;65855;42.030;13.078;2023-05-07T01:08:25;10.05;;;5.40;;
76894;SDS011;65855;42.030;13.078;2023-05-07T01:10:53;9.13;;;4.13;;
76894;SDS011;65855;42.030;13.078;2023-05-07T01:13:19;9.48;;;4.50;;
76894;SDS011;65855;42.030;13.078;2023-05-07T01:15:46;9.05;;;4.47;;
76894;SDS011;65855;42.030;13.078;2023-05-07T01:18:11;9.95;;;6.20;;
76894;SDS011;65855;42.030;13.078;2023-05-07T01:20:39;8.73;;;4.40;;
76894;SDS011;65855;42.030;13.078;2023-05-07T01:23:04;7.82;;;4.03;;
76894;SDS011;65855;42.030;13.078;2023-05-07T01:25:32;9.30;;;4.65;;
76894;SDS011;65855;42.030;13.078;2023-05-07T01:27:57;9.43;;;5.10;;
76894;SDS011;65855;42.030;13.078;2023-05-07T01:30:25;9.00;;;5.00;;
76894;SDS011;65855;42.030;13.078;2023-05-07T01:32:52;8.20;;;4.22;;
76894;SDS011;65855;42.030;13.078;2023-05-07T01:35:22;8.05;;;4.10;;
76894;SDS011;65855;42.030;13.078;2023-05-07T01:37:52;7.43;;;3.55;;
76894;SDS011;65855;42.030;13.078;2023-05-07T01:40:18;7.63;;;4.05;;
76894;SDS011;65855;42.030;13.078;2023-05-07T01:42:44;8.32;;;3.20;;
76894;SDS011;65855;42.030;13.078;2023-05-07T01:45:11;8.15;;;4.00;;
76894;SDS011;65855;42.030;13.078;2023-05-07T01:47:37;8.25;;;4.03;;
76894;SDS011;65855;42.030;13.078;2023-05-07T01:50:03;11.90;;;4.28;;
76894;SDS011;65855;42.030;13.078;2023-05-07T01:52:33;7.70;;;4.05;;
76894;SDS011;65855;42.030;13.078;2023-05-07T01:54:59;8.38;;;3.63;;
76894;SDS011;65855;42.030;13.078;2023-05-07T01:57:24;7.82;;;3.72;;
76894;SDS011;65855;42.030;13.078;2023-05-07T01:59:50;13.02;;;4.40;;
76894;SDS011;65855;42.030;13.078;2023-05-07T02:02:15;9.13;;;4.38;;
76894;SDS011;65855;42.030;13.078;2023-05-07T02:04:41;10.20;;;4.85;;
76894;SDS011;65855;42.030;13.078;2023-05-07T02:07:06;7.30;;;3.75;;
76894;SDS011;65855;42.030;13.078;2023-05-07T02:09:31;9.70;;;4.78;;
76894;SDS011;65855;42.030;13.078;2023-05-07T02:11:57;10.45;;;4.28;;
76894;SDS011;65855;42.030;13.078;2023-05-07T02:14:22;7.85;;;4.03;;
76894;SDS011;65855;42.030;13.078;2023-05-07T02:16:48;9.00;;;4.78;;
76894;SDS011;65855;42.030;13.078;2023-05-07T02:19:13;9.80;;;4.78;;
76894;SDS011;65855;42.030;13.078;2023-05-07T02:21:38;8.75;;;4.75;;
76894;SDS011;65855;42.030;13.078;2023-05-07T02:24:04;9.52;;;4.65;;
76894;SDS011;65855;42.030;13.078;2023-05-07T02:26:30;8.77;;;4.03;;
76894;SDS011;65855;42.030;13.078;2023-05-07T02:28:55;9.77;;;4.32;;
76894;SDS011;65855;42.030;13.078;2023-05-07T02:31:21;8.15;;;4.10;;
76894;SDS011;65855;42.030;13.078;2023-05-07T02:33:46;7.97;;;4.07;;
76894;SDS011;65855;42.030;13.078;2023-05-07T02:36:11;7.82;;;3.42;;
76894;SDS011;65855;42.030;13.078;2023-05-07T02:38:37;8.90;;;4.68;;
76894;SDS011;65855;42.030;13.078;2023-05-07T02:41:03;10.60;;;5.15;;
76894;SDS011;65855;42.030;13.078;2023-05-07T02:43:29;10.57;;;5.40;;
76894;SDS011;65855;42.030;13.078;2023-05-07T02:46:07;12.70;;;4.95;;
76894;SDS011;65855;42.030;13.078;2023-05-07T02:48:34;8.63;;;3.80;;
76894;SDS011;65855;42.030;13.078;2023-05-07T02:50:59;7.65;;;4.35;;
76894;SDS011;65855;42.030;13.078;2023-05-07T02:53:25;7.72;;;3.92;;
76894;SDS011;65855;42.030;13.078;2023-05-07T02:55:52;6.03;;;3.20;;
76894;SDS011;65855;42.030;13.078;2023-05-07T02:58:21;4.90;;;2.63;;
76894;SDS011;65855;42.030;13.078;2023-05-07T03:00:47;7.43;;;3.85;;
76894;SDS011;65855;42.030;13.078;2023-05-07T03:03:12;7.68;;;3.55;;
76894;SDS011;65855;42.030;13.078;2023-05-07T03:05:38;8.07;;;4.15;;
76894;SDS011;65855;42.030;13.078;2023-05-07T03:08:03;8.10;;;3.78;;
76894;SDS011;65855;42.030;13.078;2023-05-07T03:10:29;7.20;;;3.63;;
76894;SDS011;65855;42.030;13.078;2023-05-07T03:12:55;6.95;;;3.83;;
76894;SDS011;65855;42.030;13.078;2023-05-07T03:15:20;7.30;;;3.92;;
76894;SDS011;65855;42.030;13.078;2023-05-07T03:17:46;7.97;;;3.88;;
76894;SDS011;65855;42.030;13.078;2023-05-07T03:20:12;7.78;;;3.67;;
76894;SDS011;65855;42.030;13.078;2023-05-07T03:22:38;6.50;;;3.10;;
76894;SDS011;65855;42.030;13.078;2023-05-07T03:25:04;8.32;;;3.78;;
76894;SDS011;65855;42.030;13.078;2023-05-07T03:27:30;7.75;;;3.92;;
76894;SDS011;65855;42.030;13.078;2023-05-07T03:29:55;7.95;;;3.97;;
76894;SDS011;65855;42.030;13.078;2023-05-07T03:32:21;10.27;;;4.68;;
76894;SDS011;65855;42.030;13.078;2023-05-07T03:34:46;10.95;;;5.15;;
76894;SDS011;65855;42.030;13.078;2023-05-07T03:37:12;8.60;;;4.40;;
76894;SDS011;65855;42.030;13.078;2023-05-07T03:39:37;8.38;;;3.58;;
76894;SDS011;65855;42.030;13.078;2023-05-07T03:42:02;5.97;;;2.53;;
76894;SDS011;65855;42.030;13.078;2023-05-07T03:44:28;8.85;;;3.83;;
76894;SDS011;65855;42.030;13.078;2023-05-07T03:46:53;7.65;;;3.88;;
76894;SDS011;65855;42.030;13.078;2023-05-07T03:49:20;10.57;;;3.78;;
76894;SDS011;65855;42.030;13.078;2023-05-07T03:51:46;8.50;;;4.20;;
76894;SDS011;65855;42.030;13.078;2023-05-07T03:54:11;7.10;;;3.60;;
76894;SDS011;65855;42.030;13.078;2023-05-07T03:56:36;7.95;;;4.20;;
76894;SDS011;65855;42.030;13.078;2023-05-07T03:59:02;7.57;;;4.43;;
76894;SDS011;65855;42.030;13.078;2023-05-07T04:01:27;7.80;;;3.50;;
76894;SDS011;65855;42.030;13.078;2023-05-07T04:03:53;9.98;;;4.60;;
76894;SDS011;65855;42.030;13.078;2023-05-07T04:06:18;8.80;;;3.90;;
76894;SDS011;65855;42.030;13.078;2023-05-07T04:08:44;6.68;;;3.70;;
76894;SDS011;65855;42.030;13.078;2023-05-07T04:11:09;9.20;;;4.60;;
76894;SDS011;65855;42.030;13.078;2023-05-07T04:13:34;9.18;;;4.10;;
76894;SDS011;65855;42.030;13.078;2023-05-07T04:16:01;8.75;;;5.03;;
76894;SDS011;65855;42.030;13.078;2023-05-07T04:18:27;8.98;;;4.53;;
76894;SDS011;65855;42.030;13.078;2023-05-07T04:20:53;8.85;;;4.30;;
76894;SDS011;65855;42.030;13.078;2023-05-07T04:23:18;9.45;;;4.00;;
76894;SDS011;65855;42.030;13.078;2023-05-07T04:25:44;10.20;;;5.35;;
76894;SDS011;65855;42.030;13.078;2023-05-07T04:28:10;9.15;;;4.70;;
76894;SDS011;65855;42.030;13.078;2023-05-07T04:30:36;10.63;;;5.60;;
76894;SDS011;65855;42.030;13.078;2023-05-07T04:33:02;8.60;;;4.82;;
76894;SDS011;65855;42.030;13.078;2023-05-07T04:35:27;9.80;;;5.72;;
76894;SDS011;65855;42.030;13.078;2023-05-07T04:37:53;11.07;;;6.53;;
76894;SDS011;65855;42.030;13.078;2023-05-07T04:40:18;9.95;;;5.30;;
76894;SDS011;65855;42.030;13.078;2023-05-07T04:42:44;8.15;;;4.07;;
76894;SDS011;65855;42.030;13.078;2023-05-07T04:45:09;10.73;;;5.97;;
76894;SDS011;65855;42.030;13.078;2023-05-07T04:47:35;10.77;;;4.97;;
76894;SDS011;65855;42.030;13.078;2023-05-07T04:50:01;9.95;;;5.07;;
76894;SDS011;65855;42.030;13.078;2023-05-07T04:52:27;9.27;;;4.55;;
76894;SDS011;65855;42.030;13.078;2023-05-07T04:54:52;10.27;;;5.05;;
76894;SDS011;65855;42.030;13.078;2023-05-07T04:57:18;10.38;;;5.47;;
76894;SDS011;65855;42.030;13.078;2023-05-07T04:59:43;9.55;;;4.85;;
76894;SDS011;65855;42.030;13.078;2023-05-07T05:02:12;9.15;;;4.25;;
76894;SDS011;65855;42.030;13.078;2023-05-07T05:04:37;8.68;;;4.28;;
76894;SDS011;65855;42.030;13.078;2023-05-07T05:07:03;8.27;;;4.40;;
76894;SDS011;65855;42.030;13.078;2023-05-07T05:09:29;8.60;;;4.38;;
76894;SDS011;65855;42.030;13.078;2023-05-07T05:11:55;11.60;;;4.97;;
76894;SDS011;65855;42.030;13.078;2023-05-07T05:14:20;10.30;;;5.05;;
76894;SDS011;65855;42.030;13.078;2023-05-07T05:16:46;9.48;;;5.32;;
76894;SDS011;65855;42.030;13.078;2023-05-07T05:19:11;10.60;;;5.07;;
76894;SDS011;65855;42.030;13.078;2023-05-07T05:21:36;10.93;;;4.60;;
76894;SDS011;65855;42.030;13.078;2023-05-07T05:24:02;10.20;;;4.68;;
76894;SDS011;65855;42.030;13.078;2023-05-07T05:26:27;9.88;;;5.15;;
76894;SDS011;65855;42.030;13.078;2023-05-07T05:28:53;8.68;;;4.40;;
76894;SDS011;65855;42.030;13.078;2023-05-07T05:31:19;9.57;;;5.10;;
76894;SDS011;65855;42.030;13.078;2023-05-07T05:33:44;8.05;;;4.25;;
76894;SDS011;65855;42.030;13.078;2023-05-07T05:36:10;8.73;;;4.05;;
76894;SDS011;65855;42.030;13.078;2023-05-07T05:38:37;9.38;;;4.15;;
76894;SDS011;65855;42.030;13.078;2023-05-07T05:41:02;7.15;;;2.97;;
76894;SDS011;65855;42.030;13.078;2023-05-07T05:43:28;6.93;;;3.63;;
76894;SDS011;65855;42.030;13.078;2023-05-07T05:45:53;7.53;;;3.47;;
76894;SDS011;65855;42.030;13.078;2023-05-07T05:48:20;7.28;;;3.20;;
76894;SDS011;65855;42.030;13.078;2023-05-07T05:50:46;8.07;;;3.53;;
76894;SDS011;65855;42.030;13.078;2023-05-07T05:53:11;8.18;;;3.60;;
76894;SDS011;65855;42.030;13.078;2023-05-07T05:55:36;8.75;;;3.83;;
76894;SDS011;65855;42.030;13.078;2023-05-07T05:58:02;9.63;;;3.17;;
76894;SDS011;65855;42.030;13.078;2023-05-07T06:00:28;6.35;;;2.72;;
76894;SDS011;65855;42.030;13.078;2023-05-07T06:02:54;7.00;;;2.92;;
76894;SDS011;65855;42.030;13.078;2023-05-07T06:05:19;6.72;;;2.42;;
76894;SDS011;65855;42.030;13.078;2023-05-07T06:07:45;6.60;;;3.08;;
76894;SDS011;65855;42.030;13.078;2023-05-07T06:10:10;7.28;;;3.15;;
76894;SDS011;65855;42.030;13.078;2023-05-07T06:12:36;8.02;;;2.85;;
76894;SDS011;65855;42.030;13.078;2023-05-07T06:15:02;6.45;;;2.95;;
76894;SDS011;65855;42.030;13.078;2023-05-07T06:17:28;6.97;;;3.05;;
76894;SDS011;65855;42.030;13.078;2023-05-07T06:19:53;6.43;;;3.10;;
76894;SDS011;65855;42.030;13.078;2023-05-07T06:22:18;6.47;;;2.53;;
76894;SDS011;65855;42.030;13.078;2023-05-07T06:24:44;6.18;;;2.97;;
76894;SDS011;65855;42.030;13.078;2023-05-07T06:27:09;6.22;;;2.92;;
76894;SDS011;65855;42.030;13.078;2023-05-07T06:29:35;6.32;;;2.65;;
76894;SDS011;65855;42.030;13.078;2023-05-07T06:32:10;7.10;;;2.15;;
76894;SDS011;65855;42.030;13.078;2023-05-07T06:34:37;7.07;;;2.72;;
76894;SDS011;65855;42.030;13.078;2023-05-07T06:37:03;5.68;;;2.42;;
76894;SDS011;65855;42.030;13.078;2023-05-07T06:39:28;6.53;;;2.67;;
76894;SDS011;65855;42.030;13.078;2023-05-07T06:41:54;6.13;;;2.78;;
76894;SDS011;65855;42.030;13.078;2023-05-07T06:44:19;6.28;;;2.60;;
76894;SDS011;65855;42.030;13.078;2023-05-07T06:46:45;5.88;;;2.53;;
76894;SDS011;65855;42.030;13.078;2023-05-07T06:49:11;6.05;;;2.33;;
76894;SDS011;65855;42.030;13.078;2023-05-07T06:51:37;6.30;;;2.72;;
76894;SDS011;65855;42.030;13.078;2023-05-07T06:54:03;6.10;;;2.45;;
76894;SDS011;65855;42.030;13.078;2023-05-07T06:56:29;6.28;;;2.20;;
76894;SDS011;65855;42.030;13.078;2023-05-07T06:58:55;7.13;;;2.50;;
76894;SDS011;65855;42.030;13.078;2023-05-07T07:01:21;5.72;;;2.20;;
76894;SDS011;65855;42.030;13.078;2023-05-07T07:03:46;6.78;;;2.42;;
76894;SDS011;65855;42.030;13.078;2023-05-07T07:06:12;6.63;;;2.40;;
76894;SDS011;65855;42.030;13.078;2023-05-07T07:08:37;7.85;;;2.45;;
76894;SDS011;65855;42.030;13.078;2023-05-07T07:11:04;5.53;;;2.40;;
76894;SDS011;65855;42.030;13.078;2023-05-07T07:13:30;5.57;;;2.30;;
76894;SDS011;65855;42.030;13.078;2023-05-07T07:15:55;5.25;;;1.63;;
76894;SDS011;65855;42.030;13.078;2023-05-07T07:18:21;5.40;;;2.47;;
76894;SDS011;65855;42.030;13.078;2023-05-07T07:20:46;8.45;;;2.70;;
76894;SDS011;65855;42.030;13.078;2023-05-07T07:23:11;6.03;;;2.45;;
76894;SDS011;65855;42.030;13.078;2023-05-07T07:25:37;6.50;;;2.50;;
76894;SDS011;65855;42.030;13.078;2023-05-07T07:28:02;5.55;;;2.30;;
76894;SDS011;65855;42.030;13.078;2023-05-07T07:30:28;5.53;;;2.40;;
76894;SDS011;65855;42.030;13.078;2023-05-07T07:32:54;5.75;;;2.20;;
76894;SDS011;65855;42.030;13.078;2023-05-07T07:35:21;5.65;;;2.10;;
76894;SDS011;65855;42.030;13.078;2023-05-07T07:37:46;6.22;;;2.47;;
76894;SDS011;65855;42.030;13.078;2023-05-07T07:40:14;6.78;;;2.30;;
76894;SDS011;65855;42.030;13.078;2023-05-07T07:42:40;6.65;;;3.03;;
76894;SDS011;65855;42.030;13.078;2023-05-07T07:45:05;6.53;;;2.83;;
76894;SDS011;65855;42.030;13.078;2023-05-07T07:47:31;6.00;;;2.25;;
76894;SDS011;65855;42.030;13.078;2023-05-07T07:49:57;5.65;;;2.58;;
76894;SDS011;65855;42.030;13.078;2023-05-07T07:52:22;6.65;;;2.50;;
76894;SDS011;65855;42.030;13.078;2023-05-07T07:54:48;6.55;;;2.42;;
76894;SDS011;65855;42.030;13.078;2023-05-07T07:57:13;5.85;;;2.38;;
76894;SDS011;65855;42.030;13.078;2023-05-07T07:59:38;7.10;;;2.88;;
76894;SDS011;65855;42.030;13.078;2023-05-07T08:02:04;6.82;;;2.63;;
76894;SDS011;65855;42.030;13.078;2023-05-07T08:04:30;6.20;;;2.28;;
76894;SDS011;65855;42.030;13.078;2023-05-07T08:06:58;5.43;;;2.05;;
76894;SDS011;65855;42.030;13.078;2023-05-07T08:09:23;5.70;;;2.47;;
76894;SDS011;65855;42.030;13.078;2023-05-07T08:11:48;5.30;;;1.90;;
76894;SDS011;65855;42.030;13.078;2023-05-07T08:14:14;6.38;;;2.78;;
76894;SDS011;65855;42.030;13.078;2023-05-07T08:16:40;6.82;;;2.63;;
76894;SDS011;65855;42.030;13.078;2023-05-07T08:19:06;6.28;;;2.17;;
76894;SDS011;65855;42.030;13.078;2023-05-07T08:21:31;5.15;;;1.90;;
76894;SDS011;65855;42.030;13.078;2023-05-07T08:23:57;6.22;;;2.67;;
76894;SDS011;65855;42.030;13.078;2023-05-07T08:26:22;5.70;;;2.00;;
76894;SDS011;65855;42.030;13.078;2023-05-07T08:28:48;5.40;;;2.08;;
76894;SDS011;65855;42.030;13.078;2023-05-07T08:31:13;6.18;;;2.15;;
76894;SDS011;65855;42.030;13.078;2023-05-07T08:33:39;6.65;;;1.95;;
76894;SDS011;65855;42.030;13.078;2023-05-07T08:36:05;6.97;;;3.30;;
76894;SDS011;65855;42.030;13.078;2023-05-07T08:38:31;5.18;;;1.90;;
76894;SDS011;65855;42.030;13.078;2023-05-07T08:40:57;5.80;;;2.33;;
76894;SDS011;65855;42.030;13.078;2023-05-07T08:43:23;4.85;;;1.70;;
76894;SDS011;65855;42.030;13.078;2023-05-07T08:45:52;9.32;;;2.03;;
76894;SDS011;65855;42.030;13.078;2023-05-07T08:48:20;6.13;;;2.47;;
76894;SDS011;65855;42.030;13.078;2023-05-07T08:50:47;6.93;;;2.05;;
76894;SDS011;65855;42.030;13.078;2023-05-07T08:53:13;5.65;;;2.47;;
76894;SDS011;65855;42.030;13.078;2023-05-07T08:55:40;7.25;;;2.33;;
76894;SDS011;65855;42.030;13.078;2023-05-07T08:58:05;7.20;;;2.75;;
76894;SDS011;65855;42.030;13.078;2023-05-07T09:00:31;7.13;;;2.22;;
76894;SDS011;65855;42.030;13.078;2023-05-07T09:02:57;5.65;;;2.70;;
76894;SDS011;65855;42.030;13.078;2023-05-07T09:05:22;5.53;;;2.25;;
76894;SDS011;65855;42.030;13.078;2023-05-07T09:07:48;8.07;;;2.45;;
76894;SDS011;65855;42.030;13.078;2023-05-07T09:10:14;5.85;;;2.45;;
76894;SDS011;65855;42.030;13.078;2023-05-07T09:12:39;5.40;;;1.92;;
76894;SDS011;65855;42.030;13.078;2023-05-07T09:15:05;6.53;;;2.28;;
76894;SDS011;65855;42.030;13.078;2023-05-07T09:17:31;6.53;;;2.45;;
76894;SDS011;65855;42.030;13.078;2023-05-07T09:20:01;5.13;;;2.13;;
76894;SDS011;65855;42.030;13.078;2023-05-07T09:22:31;6.47;;;2.88;;
76894;SDS011;65855;42.030;13.078;2023-05-07T09:24:57;6.05;;;2.53;;
76894;SDS011;65855;42.030;13.078;2023-05-07T09:27:22;6.10;;;2.45;;
76894;SDS011;65855;42.030;13.078;2023-05-07T09:29:48;6.22;;;2.47;;
76894;SDS011;65855;42.030;13.078;2023-05-07T09:32:13;6.78;;;2.15;;
76894;SDS011;65855;42.030;13.078;2023-05-07T09:34:40;5.00;;;2.42;;
76894;SDS011;65855;42.030;13.078;2023-05-07T09:37:06;6.20;;;2.22;;
76894;SDS011;65855;42.030;13.078;2023-05-07T09:39:42;6.65;;;2.60;;
76894;SDS011;65855;42.030;13.078;2023-05-07T09:42:09;6.15;;;2.60;;
76894;SDS011;65855;42.030;13.078;2023-05-07T09:44:36;6.82;;;2.92;;
76894;SDS011;65855;42.030;13.078;2023-05-07T09:47:04;5.75;;;2.47;;
76894;SDS011;65855;42.030;13.078;2023-05-07T09:49:32;5.43;;;2.00;;
76894;SDS011;65855;42.030;13.078;2023-05-07T09:52:00;5.28;;;2.17;;
76894;SDS011;65855;42.030;13.078;2023-05-07T09:54:26;5.00;;;2.30;;
76894;SDS011;65855;42.030;13.078;2023-05-07T09:56:55;6.57;;;2.42;;
76894;SDS011;65855;42.030;13.078;2023-05-07T09:59:22;7.68;;;2.75;;
76894;SDS011;65855;42.030;13.078;2023-05-07T10:01:47;6.03;;;2.58;;
76894;SDS011;65855;42.030;13.078;2023-05-07T10:04:14;6.05;;;2.80;;
76894;SDS011;65855;42.030;13.078;2023-05-07T10:06:40;6.15;;;2.42;;
76894;SDS011;65855;42.030;13.078;2023-05-07T10:09:06;5.72;;;3.15;;
76894;SDS011;65855;42.030;13.078;2023-05-07T10:11:33;5.32;;;1.83;;
76894;SDS011;65855;42.030;13.078;2023-05-07T10:13:59;5.50;;;2.13;;
76894;SDS011;65855;42.030;13.078;2023-05-07T10:16:27;6.05;;;2.63;;
76894;SDS011;65855;42.030;13.078;2023-05-07T10:18:56;5.80;;;2.47;;
76894;SDS011;65855;42.030;13.078;2023-05-07T10:21:23;6.22;;;2.45;;
76894;SDS011;65855;42.030;13.078;2023-05-07T10:23:50;6.28;;;2.38;;
76894;SDS011;65855;42.030;13.078;2023-05-07T10:26:19;7.25;;;2.33;;
76894;SDS011;65855;42.030;13.078;2023-05-07T10:28:46;5.60;;;2.58;;
76894;SDS011;65855;42.030;13.078;2023-05-07T10:34:27;8.00;;;2.58;;
76894;SDS011;65855;42.030;13.078;2023-05-07T10:37:02;6.25;;;3.25;;
76894;SDS011;65855;42.030;13.078;2023-05-07T10:39:29;6.28;;;2.30;;
76894;SDS011;65855;42.030;13.078;2023-05-07T10:41:54;5.35;;;2.38;;
76894;SDS011;65855;42.030;13.078;2023-05-07T10:44:27;6.00;;;2.88;;
76894;SDS011;65855;42.030;13.078;2023-05-07T10:52:16;5.55;;;2.75;;
76894;SDS011;65855;42.030;13.078;2023-05-07T10:54:43;5.95;;;2.72;;
76894;SDS011;65855;42.030;13.078;2023-05-07T10:59:57;5.45;;;2.50;;
76894;SDS011;65855;42.030;13.078;2023-05-07T11:02:22;7.05;;;2.67;;
76894;SDS011;65855;42.030;13.078;2023-05-07T11:05:18;5.35;;;2.30;;
76894;SDS011;65855;42.030;13.078;2023-05-07T11:07:58;7.32;;;3.25;;
76894;SDS011;65855;42.030;13.078;2023-05-07T11:13:16;7.05;;;2.42;;
76894;SDS011;65855;42.030;13.078;2023-05-07T11:15:44;7.22;;;3.05;;
76894;SDS011;65855;42.030;13.078;2023-05-07T11:18:11;8.32;;;3.28;;
76894;SDS011;65855;42.030;13.078;2023-05-07T11:26:03;6.25;;;2.70;;
76894;SDS011;65855;42.030;13.078;2023-05-07T11:30:57;6.93;;;2.70;;
76894;SDS011;65855;42.030;13.078;2023-05-07T11:33:23;9.32;;;3.60;;
76894;SDS011;65855;42.030;13.078;2023-05-07T11:35:50;7.18;;;2.97;;
76894;SDS011;65855;42.030;13.078;2023-05-07T11:38:17;7.38;;;3.28;;
76894;SDS011;65855;42.030;13.078;2023-05-07T11:40:53;6.22;;;2.20;;
76894;SDS011;65855;42.030;13.078;2023-05-07T11:43:20;7.00;;;2.97;;
76894;SDS011;65855;42.030;13.078;2023-05-07T11:45:46;8.25;;;2.63;;
76894;SDS011;65855;42.030;13.078;2023-05-07T11:48:12;6.97;;;3.38;;
76894;SDS011;65855;42.030;13.078;2023-05-07T11:51:01;8.60;;;3.50;;
76894;SDS011;65855;42.030;13.078;2023-05-07T11:56:05;7.03;;;2.38;;
76894;SDS011;65855;42.030;13.078;2023-05-07T11:58:34;7.75;;;2.63;;
76894;SDS011;65855;42.030;13.078;2023-05-07T12:01:00;6.30;;;2.58;;
76894;SDS011;65855;42.030;13.078;2023-05-07T12:03:25;8.35;;;2.40;;
76894;SDS011;65855;42.030;13.078;2023-05-07T12:05:51;6.82;;;3.13;;
76894;SDS011;65855;42.030;13.078;2023-05-07T12:08:20;5.97;;;2.47;;
76894;SDS011;65855;42.030;13.078;2023-05-07T12:10:48;6.72;;;2.85;;
76894;SDS011;65855;42.030;13.078;2023-05-07T12:15:40;6.10;;;2.58;;
76894;SDS011;65855;42.030;13.078;2023-05-07T12:18:05;6.32;;;2.55;;
76894;SDS011;65855;42.030;13.078;2023-05-07T12:20:31;9.68;;;4.05;;
76894;SDS011;65855;42.030;13.078;2023-05-07T12:22:56;7.30;;;2.92;;
76894;SDS011;65855;42.030;13.078;2023-05-07T12:25:22;6.10;;;2.72;;
76894;SDS011;65855;42.030;13.078;2023-05-07T12:27:51;6.18;;;2.88;;
76894;SDS011;65855;42.030;13.078;2023-05-07T12:30:17;7.60;;;3.22;;
76894;SDS011;65855;42.030;13.078;2023-05-07T12:32:44;7.20;;;2.40;;
76894;SDS011;65855;42.030;13.078;2023-05-07T12:35:10;6.47;;;2.38;;
76894;SDS011;65855;42.030;13.078;2023-05-07T12:37:35;7.25;;;3.15;;
76894;SDS011;65855;42.030;13.078;2023-05-07T12:40:05;6.05;;;2.75;;
76894;SDS011;65855;42.030;13.078;2023-05-07T12:42:37;6.47;;;3.50;;
76894;SDS011;65855;42.030;13.078;2023-05-07T12:45:11;6.65;;;2.38;;
76894;SDS011;65855;42.030;13.078;2023-05-07T12:47:43;6.60;;;2.60;;
76894;SDS011;65855;42.030;13.078;2023-05-07T12:50:12;7.07;;;2.75;;
76894;SDS011;65855;42.030;13.078;2023-05-07T12:52:41;6.68;;;2.72;;
76894;SDS011;65855;42.030;13.078;2023-05-07T12:55:07;5.50;;;2.28;;
76894;SDS011;65855;42.030;13.078;2023-05-07T12:57:43;5.80;;;2.45;;
76894;SDS011;65855;42.030;13.078;2023-05-07T13:00:32;6.32;;;2.95;;
76894;SDS011;65855;42.030;13.078;2023-05-07T13:02:58;6.57;;;2.63;;
76894;SDS011;65855;42.030;13.078;2023-05-07T13:05:24;9.65;;;2.85;;
76894;SDS011;65855;42.030;13.078;2023-05-07T13:07:56;6.43;;;2.78;;
76894;SDS011;65855;42.030;13.078;2023-05-07T13:10:24;7.30;;;2.63;;
76894;SDS011;65855;42.030;13.078;2023-05-07T13:12:50;5.80;;;2.25;;
76894;SDS011;65855;42.030;13.078;2023-05-07T13:15:16;5.82;;;2.17;;
76894;SDS011;65855;42.030;13.078;2023-05-07T13:17:42;8.18;;;2.83;;
76894;SDS011;65855;42.030;13.078;2023-05-07T13:20:08;6.13;;;2.55;;
76894;SDS011;65855;42.030;13.078;2023-05-07T13:22:34;8.52;;;2.92;;
76894;SDS011;65855;42.030;13.078;2023-05-07T13:25:01;6.18;;;2.70;;
76894;SDS011;65855;42.030;13.078;2023-05-07T13:27:26;24.52;;;11.77;;
76894;SDS011;65855;42.030;13.078;2023-05-07T13:29:52;6.20;;;2.60;;
76894;SDS011;65855;42.030;13.078;2023-05-07T13:32:17;6.35;;;2.85;;
76894;SDS011;65855;42.030;13.078;2023-05-07T13:34:43;8.10;;;2.35;;
76894;SDS011;65855;42.030;13.078;2023-05-07T13:37:08;5.75;;;2.88;;
76894;SDS011;65855;42.030;13.078;2023-05-07T13:39:34;6.63;;;2.70;;
76894;SDS011;65855;42.030;13.078;2023-05-07T13:41:59;7.60;;;2.88;;
76894;SDS011;65855;42.030;13.078;2023-05-07T13:44:25;6.85;;;2.75;;
76894;SDS011;65855;42.030;13.078;2023-05-07T13:46:51;5.65;;;2.70;;
76894;SDS011;65855;42.030;13.078;2023-05-07T13:49:16;7.70;;;2.67;;
76894;SDS011;65855;42.030;13.078;2023-05-07T13:51:42;7.32;;;2.95;;
76894;SDS011;65855;42.030;13.078;2023-05-07T13:54:07;6.97;;;2.60;;
76894;SDS011;65855;42.030;13.078;2023-05-07T13:56:33;5.97;;;2.38;;
76894;SDS011;65855;42.030;13.078;2023-05-07T13:58:58;6.25;;;2.63;;
76894;SDS011;65855;42.030;13.078;2023-05-07T14:01:24;6.32;;;2.65;;
76894;SDS011;65855;42.030;13.078;2023-05-07T14:03:49;6.15;;;2.58;;
76894;SDS011;65855;42.030;13.078;2023-05-07T14:06:15;7.88;;;3.10;;
76894;SDS011;65855;42.030;13.078;2023-05-07T14:08:40;7.38;;;3.35;;
76894;SDS011;65855;42.030;13.078;2023-05-07T14:11:06;6.15;;;2.25;;
76894;SDS011;65855;42.030;13.078;2023-05-07T14:13:31;6.40;;;2.97;;
76894;SDS011;65855;42.030;13.078;2023-05-07T14:15:57;6.38;;;2.97;;
76894;SDS011;65855;42.030;13.078;2023-05-07T14:18:23;6.75;;;2.75;;
76894;SDS011;65855;42.030;13.078;2023-05-07T14:20:48;8.80;;;3.38;;
76894;SDS011;65855;42.030;13.078;2023-05-07T14:23:14;6.75;;;2.42;;
76894;SDS011;65855;42.030;13.078;2023-05-07T14:25:42;6.00;;;2.70;;
76894;SDS011;65855;42.030;13.078;2023-05-07T14:28:08;6.75;;;3.40;;
76894;SDS011;65855;42.030;13.078;2023-05-07T14:30:34;6.72;;;2.97;;
76894;SDS011;65855;42.030;13.078;2023-05-07T14:33:00;9.05;;;2.97;;
76894;SDS011;65855;42.030;13.078;2023-05-07T14:35:25;7.90;;;3.42;;
76894;SDS011;65855;42.030;13.078;2023-05-07T14:37:51;6.10;;;2.47;;
76894;SDS011;65855;42.030;13.078;2023-05-07T14:40:16;7.13;;;3.22;;
76894;SDS011;65855;42.030;13.078;2023-05-07T14:42:41;6.75;;;2.50;;
76894;SDS011;65855;42.030;13.078;2023-05-07T14:45:07;6.75;;;3.05;;
76894;SDS011;65855;42.030;13.078;2023-05-07T14:47:33;7.28;;;3.08;;
76894;SDS011;65855;42.030;13.078;2023-05-07T14:49:58;6.45;;;2.80;;
76894;SDS011;65855;42.030;13.078;2023-05-07T14:52:25;8.48;;;2.83;;
76894;SDS011;65855;42.030;13.078;2023-05-07T14:54:51;6.95;;;2.75;;